Time;durP1;ratioP1;P1;durP2;ratioP2;P2;SDS_P1;SDS_P2;PMS_P1;PMS_P2;Temp;Humidity;BMP_temperature;BMP_pressure;BME280_temperature;BME280_humidity;BME280_pressure;Samples;Min_cycle;Max_cycle;Signal;HPM_P1;HPM_P2
2023/06/10 00:00:59;;;;;;;;;;;;;;;-146.25;72.50;51978.91;2080058;28;38823;-69
2023/06/10 00:02:01;;;;;;;;;;;;;;;-146.25;72.70;51962.69;2080381;28;31396;-70
2023/06/10 00:03:02;;;;;;;;;;;;;;;-146.25;73.31;51952.56;2077290;28;33041;-69
2023/06/10 00:04:04;;;;;;;;;;;;;;;-146.25;73.18;51999.19;2072173;28;32480;-69
2023/06/10 00:05:10;;;;;;;;;;;;;;;-146.25;73.83;52019.47;2076946;28;20829;-69
2023/06/10 00:06:12;;;;;;;;;;;;;;;-146.25;74.01;52023.53;2080210;28;38471;-69
2023/06/10 00:07:15;;;;;;;;;;;;;;;-146.25;74.48;51995.13;2076619;28;33677;-69
2023/06/10 00:08:19;;;;;;;;;;;;;;;-146.25;75.32;51950.53;2072525;28;19914;-69
2023/06/10 00:09:21;;;;;;;;;;;;;;;-146.25;75.29;51970.81;2078187;28;28152;-69
2023/06/10 00:10:24;;;;;;;;;;;;;;;-146.25;75.57;51999.19;2080345;28;19952;-69
2023/06/10 00:11:25;;;;;;;;;;;;;;;-146.25;76.00;52001.22;2073518;28;34150;-70
2023/06/10 00:12:28;;;;;;;;;;;;;;;-146.25;76.11;52013.38;2072013;28;31095;-69
2023/06/10 00:13:30;;;;;;;;;;;;;;;-146.25;76.03;51980.94;2079325;28;34269;-69
2023/06/10 00:14:32;;;;;;;;;;;;;;;-146.25;75.83;51948.50;2080070;28;34741;-70
2023/06/10 00:15:35;;;;;;;;;;;;;;;-146.25;76.87;51962.69;2072441;28;33327;-70
2023/06/10 00:16:38;;;;;;;;;;;;;;;-146.25;76.75;51999.19;2071792;28;35176;-70
2023/06/10 00:17:40;;;;;;;;;;;;;;;-146.25;77.28;51970.81;2072099;28;38649;-70
2023/06/10 00:18:43;;;;;;;;;;;;;;;-146.25;77.07;51982.97;2072781;28;19930;-70
2023/06/10 00:19:46;;;;;;;;;;;;;;;-146.25;77.93;52003.25;2072154;28;35656;-70
2023/06/10 00:20:52;;;;;;;;;;;;;;;-146.25;78.19;51991.09;2072635;28;31981;-70
2023/06/10 00:21:54;;;;;;;;;;;;;;;-146.25;78.33;51980.94;2080427;28;35342;-68
2023/06/10 00:22:58;;;;;;;;;;;;;;;-146.25;78.95;51976.88;2077771;28;37900;-70
2023/06/10 00:24:02;;;;;;;;;;;;;;;-146.25;78.43;51993.09;2072040;28;19969;-70
2023/06/10 00:25:09;;;;;;;;;;;;;;;-146.25;78.72;52005.28;2074127;28;37225;-70
2023/06/10 00:26:10;;;;;;;;;;;;;;;-146.25;79.84;51982.97;2080021;28;33240;-69
2023/06/10 00:27:12;;;;;;;;;;;;;;;-146.25;79.91;51978.91;2075995;28;19995;-70
2023/06/10 00:28:14;;;;;;;;;;;;;;;-146.25;80.05;51982.97;2072059;28;35344;-69
2023/06/10 00:29:17;;;;;;;;;;;;;;;-146.25;80.64;51991.09;2077551;28;26540;-70
2023/06/10 00:30:19;;;;;;;;;;;;;;;-146.25;81.13;51985.00;2079874;28;28547;-70
2023/06/10 00:31:21;;;;;;;;;;;;;;;-146.25;81.35;52007.31;2077038;28;32007;-69
2023/06/10 00:32:22;;;;;;;;;;;;;;;-146.25;80.55;51989.06;2072455;28;29470;-69
2023/06/10 00:33:24;;;;;;;;;;;;;;;-146.25;81.19;52007.31;2078549;28;28815;-69
2023/06/10 00:34:26;;;;;;;;;;;;;;;-146.25;82.20;51987.03;2079865;28;31896;-69
2023/06/10 00:35:27;;;;;;;;;;;;;;;-146.25;81.95;52013.38;2064775;28;27310;-69
2023/06/10 00:36:30;;;;;;;;;;;;;;;-146.25;82.97;52009.31;2064151;28;20862;-70
2023/06/10 00:37:35;;;;;;;;;;;;;;;-146.25;82.10;51995.13;2078731;28;24670;-69
2023/06/10 00:38:37;;;;;;;;;;;;;;;-146.25;82.47;52011.34;2079964;28;23256;-69
2023/06/10 00:39:38;;;;;;;;;;;;;;;-146.25;83.11;52037.72;2063078;28;31637;-69
2023/06/10 00:40:43;;;;;;;;;;;;;;;-146.25;84.29;51995.13;2071420;28;32039;-69
2023/06/10 00:41:47;;;;;;;;;;;;;;;-146.25;84.15;52029.59;2079882;28;19925;-70
2023/06/10 00:42:49;;;;;;;;;;;;;;;-146.25;84.71;52041.75;2078172;28;26110;-69
2023/06/10 00:43:50;;;;;;;;;;;;;;;-146.25;83.80;52023.53;2072102;28;27169;-68
2023/06/10 00:44:52;;;;;;;;;;;;;;;-146.25;84.48;51970.81;2073869;28;28896;-69
2023/06/10 00:45:54;;;;;;;;;;;;;;;-146.25;85.56;52017.44;2080341;28;32059;-69
2023/06/10 00:46:57;;;;;;;;;;;;;;;-146.25;85.61;51995.13;2077563;28;20050;-70
2023/06/10 00:48:00;;;;;;;;;;;;;;;-146.25;85.20;52023.53;2063172;28;24608;-69
2023/06/10 00:49:02;;;;;;;;;;;;;;;-146.25;86.20;51991.09;2067137;28;19925;-69
2023/06/10 00:50:05;;;;;;;;;;;;;;;-146.25;86.40;52025.53;2079907;28;19925;-69
2023/06/10 00:51:08;;;;;;;;;;;;;;;-146.25;85.96;52025.53;2076933;28;29906;-69
2023/06/10 00:52:14;;;;;;;;;;;;;;;-146.25;87.19;51987.03;2071527;28;39767;-69
2023/06/10 00:53:16;;;;;;;;;;;;;;;-146.25;87.27;52005.28;2076690;28;23735;-69
2023/06/10 00:54:18;;;;;;;;;;;;;;;-146.25;88.01;52039.75;2079409;28;30979;-70
2023/06/10 00:55:20;;;;;;;;;;;;;;;-146.25;87.31;52015.41;2073737;28;30450;-70
2023/06/10 00:56:22;;;;;;;;;;;;;;;-146.25;87.60;52007.31;2071634;28;24189;-70
2023/06/10 00:57:23;;;;;;;;;;;;;;;-146.25;88.19;52009.31;2077347;28;30028;-69
2023/06/10 00:58:26;;;;;;;;;;;;;;;-146.25;88.50;51999.19;2078676;28;23001;-70
2023/06/10 00:59:29;;;;;;;;;;;;;;;-146.25;88.76;52015.41;2079742;28;29107;-69
2023/06/10 01:00:31;;;;;;;;;;;;;;;-146.25;88.84;52011.34;2079925;28;30306;-69
2023/06/10 01:01:33;;;;;;;;;;;;;;;-146.25;89.60;52033.66;2075107;28;37634;-68
2023/06/10 01:02:36;;;;;;;;;;;;;;;-146.25;89.40;52027.56;2079672;28;20008;-70
2023/06/10 01:03:39;;;;;;;;;;;;;;;-146.25;89.26;52031.63;2078110;28;25538;-68
2023/06/10 01:04:41;;;;;;;;;;;;;;;-146.25;89.92;52039.75;2079170;28;23942;-69
2023/06/10 01:05:44;;;;;;;;;;;;;;;-146.25;90.04;51999.19;2079816;28;31082;-69
2023/06/10 01:07:09;;;;;;;;;;;;;;;-146.25;90.51;51999.19;2073010;28;25339;-70
2023/06/10 01:08:33;;;;;;;;;;;;;;;-146.25;91.06;51968.78;2072685;28;34669;-69
2023/06/10 01:09:43;;;;;;;;;;;;;;;-146.25;91.51;51980.94;2078926;28;31754;-69
2023/06/10 01:11:01;;;;;;;;;;;;;;;-146.25;92.21;52037.72;2079049;28;20047;-70
2023/06/10 01:12:48;;;;;;;;;;;;;;;-146.25;92.62;51985.00;2071461;28;19929;-71
2023/06/10 01:13:51;;;;;;;;;;;;;;;-146.25;93.57;52007.31;2072590;28;19976;-71
2023/06/10 01:14:55;;;;;;;;;;;;;;;-146.25;93.41;51987.03;2073815;28;29370;-70
2023/06/10 01:15:58;;;;;;;;;;;;;;;-146.25;93.92;52051.91;2080327;28;20656;-71
2023/06/10 01:17:01;;;;;;;;;;;;;;;-146.25;94.05;51982.97;2076348;28;20887;-69
2023/06/10 01:18:12;;;;;;;;;;;;;;;-146.25;95.10;51982.97;2072342;28;19980;-69
2023/06/10 01:19:17;;;;;;;;;;;;;;;-146.25;95.47;52009.31;2076872;28;29265;-69
2023/06/10 01:20:21;;;;;;;;;;;;;;;-146.25;95.52;51997.16;2072009;28;28076;-70
2023/06/10 01:21:24;;;;;;;;;;;;;;;-146.25;95.93;52037.72;2069840;28;19979;-70
2023/06/10 01:22:28;;;;;;;;;;;;;;;-146.25;95.82;52007.31;2079834;28;23952;-70
2023/06/10 01:23:30;;;;;;;;;;;;;;;-146.25;95.99;52027.56;2072040;28;34214;-71
2023/06/10 01:24:33;;;;;;;;;;;;;;;-146.25;96.35;51993.09;2071767;28;22980;-70
2023/06/10 01:25:47;;;;;;;;;;;;;;;-146.25;97.15;52031.63;2078530;28;27951;-70
2023/06/10 01:26:51;;;;;;;;;;;;;;;-146.25;96.43;52064.06;2078798;28;27732;-71
2023/06/10 01:28:06;;;;;;;;;;;;;;;-146.25;96.97;52011.34;2071352;28;20655;-71
2023/06/10 01:29:24;;;;;;;;;;;;;;;-146.25;98.37;52045.81;2075755;28;19925;-70
2023/06/10 01:30:33;;;;;;;;;;;;;;;-146.25;98.82;52007.31;2080617;28;19921;-71
2023/06/10 01:31:41;;;;;;;;;;;;;;;-146.25;98.98;52037.72;2073014;28;37456;-70
2023/06/10 01:32:48;;;;;;;;;;;;;;;-146.25;98.74;52031.63;2080878;28;19928;-71
2023/06/10 01:33:52;;;;;;;;;;;;;;;-146.25;99.49;52021.50;2080194;28;26127;-68
2023/06/10 01:34:56;;;;;;;;;;;;;;;-146.25;99.90;52003.25;2077156;28;31394;-69
2023/06/10 01:35:59;;;;;;;;;;;;;;;-146.25;99.83;52041.75;2071748;28;20076;-69
2023/06/10 01:37:04;;;;;;;;;;;;;;;-146.25;99.85;52039.75;2075950;28;19925;-69
2023/06/10 01:38:06;;;;;;;;;;;;;;;-146.25;100.00;52011.34;2080006;28;33687;-71
2023/06/10 01:39:11;;;;;;;;;;;;;;;-146.25;100.00;52035.69;2076914;28;20855;-69
2023/06/10 01:40:13;;;;;;;;;;;;;;;-146.25;100.00;52009.31;2071338;28;19922;-69
2023/06/10 01:41:19;;;;;;;;;;;;;;;-146.25;100.00;52027.56;2068020;28;28865;-69
2023/06/10 01:42:21;;;;;;;;;;;;;;;-146.25;100.00;52053.94;2079726;28;20855;-69
2023/06/10 01:43:24;;;;;;;;;;;;;;;-146.25;100.00;52007.31;2073094;28;20053;-69
2023/06/10 01:44:26;;;;;;;;;;;;;;;-146.25;100.00;52041.75;2071889;28;20825;-69
2023/06/10 01:45:27;;;;;;;;;;;;;;;-146.25;100.00;52058.00;2078251;28;20036;-69
2023/06/10 01:46:29;;;;;;;;;;;;;;;-146.25;100.00;52037.72;2079314;28;22640;-67
2023/06/10 01:47:31;;;;;;;;;;;;;;;-146.25;100.00;52035.69;2073519;28;19949;-69
2023/06/10 01:48:34;;;;;;;;;;;;;;;-146.25;100.00;52045.81;2071384;28;20791;-69
2023/06/10 01:49:36;;;;;;;;;;;;;;;-146.25;100.00;51978.91;2070839;28;27504;-69
2023/06/10 01:50:38;;;;;;;;;;;;;;;-146.25;100.00;52039.75;2079175;28;26998;-69
2023/06/10 01:51:42;;;;;;;;;;;;;;;-146.25;100.00;52015.41;2071661;28;28488;-69
2023/06/10 01:52:43;;;;;;;;;;;;;;;-146.25;100.00;51997.16;2071374;28;29878;-69
2023/06/10 01:53:48;;;;;;;;;;;;;;;-146.25;100.00;52051.91;2079924;28;19933;-69
2023/06/10 01:54:49;;;;;;;;;;;;;;;-146.25;100.00;52023.53;2078118;28;28114;-69
2023/06/10 01:55:51;;;;;;;;;;;;;;;-146.25;100.00;51991.09;2072132;28;24054;-69
2023/06/10 01:56:55;;;;;;;;;;;;;;;-146.25;100.00;52053.94;2076589;28;22788;-69
2023/06/10 01:57:57;;;;;;;;;;;;;;;-146.25;100.00;52033.66;2063567;28;19973;-69
2023/06/10 01:58:59;;;;;;;;;;;;;;;-146.25;100.00;52080.28;2065782;28;19988;-69
2023/06/10 02:00:00;;;;;;;;;;;;;;;-146.25;100.00;51993.09;2071525;28;20072;-69
2023/06/10 02:01:05;;;;;;;;;;;;;;;-146.25;100.00;52058.00;2079295;28;19925;-69
2023/06/10 02:02:06;;;;;;;;;;;;;;;-146.25;100.00;52023.53;2086428;28;29311;-69
2023/06/10 02:03:08;;;;;;;;;;;;;;;-146.25;100.00;52015.41;2083122;28;29296;-70
2023/06/10 02:04:10;;;;;;;;;;;;;;;-146.25;100.00;51995.13;2087913;28;20789;-69
2023/06/10 02:05:11;;;;;;;;;;;;;;;-146.25;100.00;52027.56;2080094;28;19928;-69
2023/06/10 02:06:13;;;;;;;;;;;;;;;-146.25;100.00;51993.09;2078913;28;31110;-69
2023/06/10 02:07:15;;;;;;;;;;;;;;;-146.25;100.00;52029.59;2075540;28;19929;-69
2023/06/10 02:08:19;;;;;;;;;;;;;;;-146.25;100.00;52051.91;2087478;28;19917;-70
2023/06/10 02:09:20;;;;;;;;;;;;;;;-146.25;100.00;52025.53;2078779;28;21331;-71
2023/06/10 02:10:22;;;;;;;;;;;;;;;-146.25;100.00;52031.63;2072516;28;25467;-70
2023/06/10 02:11:24;;;;;;;;;;;;;;;-146.25;100.00;52041.75;2081065;28;19936;-71
2023/06/10 02:12:26;;;;;;;;;;;;;;;-146.25;100.00;52035.69;2072532;28;19925;-70
2023/06/10 02:13:28;;;;;;;;;;;;;;;-146.25;100.00;52031.63;2071284;28;19922;-71
2023/06/10 02:14:32;;;;;;;;;;;;;;;-146.25;100.00;52013.38;2072620;28;19930;-71
2023/06/10 02:15:33;;;;;;;;;;;;;;;-146.25;100.00;52015.41;2073409;28;19988;-71
2023/06/10 02:16:35;;;;;;;;;;;;;;;-146.25;100.00;52015.41;2072284;28;28209;-68
2023/06/10 02:17:39;;;;;;;;;;;;;;;-146.25;100.00;52025.53;2073074;28;19933;-71
2023/06/10 02:18:42;;;;;;;;;;;;;;;-146.25;100.00;52023.53;2072378;28;23629;-71
2023/06/10 02:19:52;;;;;;;;;;;;;;;-146.25;100.00;52005.28;2072150;28;29927;-71
2023/06/10 02:20:55;;;;;;;;;;;;;;;-146.25;100.00;52055.97;2075161;28;20698;-70
2023/06/10 02:21:56;;;;;;;;;;;;;;;-146.25;100.00;52043.78;2081225;28;19918;-70
2023/06/10 02:23:01;;;;;;;;;;;;;;;-146.25;100.00;52051.91;2078293;28;30919;-70
2023/06/10 02:24:03;;;;;;;;;;;;;;;-146.25;100.00;52021.50;2073334;28;25409;-71
2023/06/10 02:25:09;;;;;;;;;;;;;;;-146.25;100.00;52021.50;2076223;28;27317;-69
2023/06/10 02:26:10;;;;;;;;;;;;;;;-146.25;100.00;52037.72;2080808;28;29387;-71
2023/06/10 02:27:12;;;;;;;;;;;;;;;-146.25;100.00;52015.41;2076649;28;22129;-71
2023/06/10 02:28:14;;;;;;;;;;;;;;;-146.25;100.00;52017.44;2072002;28;23125;-71
2023/06/10 02:29:16;;;;;;;;;;;;;;;-146.25;100.00;52029.59;2077773;28;25862;-71
2023/06/10 02:30:18;;;;;;;;;;;;;;;-146.25;100.00;52062.03;2080722;28;19930;-71
2023/06/10 02:31:20;;;;;;;;;;;;;;;-146.25;100.00;52045.81;2074569;28;30233;-71
2023/06/10 02:32:22;;;;;;;;;;;;;;;-146.25;100.00;51999.19;2081040;28;19996;-71
2023/06/10 02:33:27;;;;;;;;;;;;;;;-146.25;100.00;52058.00;2088920;28;19921;-71
2023/06/10 02:34:29;;;;;;;;;;;;;;;-146.25;100.00;51999.19;2080876;28;19980;-71
2023/06/10 02:35:31;;;;;;;;;;;;;;;-146.25;100.00;52062.03;2065786;28;20059;-71
2023/06/10 02:36:35;;;;;;;;;;;;;;;-146.25;100.00;52003.25;2064652;28;20739;-71
2023/06/10 02:37:37;;;;;;;;;;;;;;;-146.25;100.00;52027.56;2072908;28;19921;-71
2023/06/10 02:38:42;;;;;;;;;;;;;;;-146.25;100.00;52025.53;2080727;28;20813;-71
2023/06/10 02:39:44;;;;;;;;;;;;;;;-146.25;100.00;52029.59;2064792;28;19926;-71
2023/06/10 02:40:48;;;;;;;;;;;;;;;-146.25;100.00;52064.06;2065493;28;20695;-71
2023/06/10 02:41:51;;;;;;;;;;;;;;;-146.25;100.00;52041.75;2072817;28;19969;-71
2023/06/10 02:42:55;;;;;;;;;;;;;;;-146.25;100.00;51991.09;2072456;28;19921;-70
2023/06/10 02:43:56;;;;;;;;;;;;;;;-146.25;100.00;52058.00;2072596;28;19948;-71
2023/06/10 02:44:58;;;;;;;;;;;;;;;-146.25;100.00;52023.53;2075261;28;19972;-70
2023/06/10 02:46:09;;;;;;;;;;;;;;;-146.25;100.00;51982.97;2081880;28;20781;-69
2023/06/10 02:47:10;;;;;;;;;;;;;;;-146.25;100.00;52023.53;2067935;28;20810;-71
2023/06/10 02:48:13;;;;;;;;;;;;;;;-146.25;100.00;52029.59;2056503;28;20013;-70
2023/06/10 02:49:15;;;;;;;;;;;;;;;-146.25;100.00;52060.00;2061728;28;19937;-70
2023/06/10 02:50:19;;;;;;;;;;;;;;;-146.25;100.00;52027.56;2072837;28;20060;-70
2023/06/10 02:51:32;;;;;;;;;;;;;;;-146.25;100.00;52027.56;2067119;28;19918;-70
2023/06/10 02:52:38;;;;;;;;;;;;;;;-146.25;100.00;52003.25;2064600;28;19996;-70
2023/06/10 02:53:41;;;;;;;;;;;;;;;-146.25;100.00;52027.56;2065313;28;19922;-71
2023/06/10 02:54:45;;;;;;;;;;;;;;;-146.25;100.00;52039.75;2072330;28;20667;-71
2023/06/10 02:55:47;;;;;;;;;;;;;;;-146.25;100.00;52011.34;2072637;28;20858;-71
2023/06/10 02:56:52;;;;;;;;;;;;;;;-146.25;100.00;52037.72;2078105;28;20032;-70
2023/06/10 02:57:57;;;;;;;;;;;;;;;-146.25;100.00;52041.75;2072655;28;20070;-70
2023/06/10 02:59:00;;;;;;;;;;;;;;;-146.25;100.00;52007.31;2074943;28;19922;-70
2023/06/10 03:00:09;;;;;;;;;;;;;;;-146.25;100.00;52049.88;2073087;28;19973;-71
2023/06/10 03:01:12;;;;;;;;;;;;;;;-146.25;100.00;52023.53;2077594;28;20761;-69
2023/06/10 03:02:28;;;;;;;;;;;;;;;-146.25;100.00;52023.53;2074253;28;20076;-70
2023/06/10 03:03:30;;;;;;;;;;;;;;;-146.25;100.00;52060.00;2073227;28;19922;-71
2023/06/10 03:04:38;;;;;;;;;;;;;;;-146.25;100.00;52035.69;2072767;28;20742;-70
2023/06/10 03:05:45;;;;;;;;;;;;;;;-146.25;100.00;52039.75;2072433;28;19914;-70
2023/06/10 03:06:47;;;;;;;;;;;;;;;-146.25;100.00;52033.66;2065737;28;19922;-70
2023/06/10 03:07:58;;;;;;;;;;;;;;;-146.25;100.00;52009.31;2072621;28;19921;-71
2023/06/10 03:09:00;;;;;;;;;;;;;;;-146.25;100.00;52031.63;2075527;28;20014;-70
2023/06/10 03:10:06;;;;;;;;;;;;;;;-146.25;100.00;52060.00;2073034;28;19922;-70
2023/06/10 03:11:10;;;;;;;;;;;;;;;-146.25;100.00;52017.44;2080504;28;19925;-70
2023/06/10 03:12:12;;;;;;;;;;;;;;;-146.25;100.00;52025.53;2080641;28;20845;-70
2023/06/10 03:13:19;;;;;;;;;;;;;;;-146.25;100.00;52074.22;2075046;28;21308;-70
2023/06/10 03:14:23;;;;;;;;;;;;;;;-146.25;100.00;52051.91;2064353;28;20028;-70
2023/06/10 03:15:24;;;;;;;;;;;;;;;-146.25;100.00;52025.53;2070607;28;19993;-70
2023/06/10 03:16:27;;;;;;;;;;;;;;;-146.25;100.00;52055.97;2072778;28;20048;-71
2023/06/10 03:17:31;;;;;;;;;;;;;;;-146.25;100.00;52043.78;2080151;28;19926;-70
2023/06/10 03:18:33;;;;;;;;;;;;;;;-146.25;100.00;52031.63;2080376;28;19925;-69
2023/06/10 03:19:37;;;;;;;;;;;;;;;-146.25;100.00;52060.00;2079950;28;19979;-70
2023/06/10 03:20:39;;;;;;;;;;;;;;;-146.25;100.00;52003.25;2080693;28;19925;-70
2023/06/10 03:21:44;;;;;;;;;;;;;;;-146.25;100.00;52035.69;2071463;28;20000;-70
2023/06/10 03:22:48;;;;;;;;;;;;;;;-146.25;100.00;52031.63;2073030;28;21122;-70
2023/06/10 03:23:50;;;;;;;;;;;;;;;-146.25;100.00;52037.72;2080218;28;27088;-70
2023/06/10 03:24:53;;;;;;;;;;;;;;;-146.25;100.00;52053.94;2080404;28;26192;-70
2023/06/10 03:25:55;;;;;;;;;;;;;;;-146.25;100.00;52047.84;2080264;28;19921;-70
2023/06/10 03:27:00;;;;;;;;;;;;;;;-146.25;100.00;52066.09;2070060;28;20856;-71
2023/06/10 03:28:04;;;;;;;;;;;;;;;-146.25;100.00;52029.59;2064296;28;19922;-70
2023/06/10 03:29:07;;;;;;;;;;;;;;;-146.25;100.00;52047.84;2068497;28;20818;-69
2023/06/10 03:30:10;;;;;;;;;;;;;;;-146.25;100.00;52096.50;2080353;28;19917;-70
2023/06/10 03:31:13;;;;;;;;;;;;;;;-146.25;100.00;52053.94;2075596;28;19987;-70
2023/06/10 03:32:15;;;;;;;;;;;;;;;-146.25;100.00;52064.06;2071061;28;20099;-70
2023/06/10 03:33:17;;;;;;;;;;;;;;;-146.25;100.00;52023.53;2069792;28;19936;-70
2023/06/10 03:34:19;;;;;;;;;;;;;;;-146.25;100.00;52035.69;2072365;28;19925;-70
2023/06/10 03:35:22;;;;;;;;;;;;;;;-146.25;100.00;52035.69;2075105;28;20876;-71
2023/06/10 03:36:23;;;;;;;;;;;;;;;-146.25;100.00;52039.75;2079965;28;30284;-70
2023/06/10 03:37:25;;;;;;;;;;;;;;;-146.25;100.00;52027.56;2074368;28;19921;-70
2023/06/10 03:38:27;;;;;;;;;;;;;;;-146.25;100.00;52062.03;2071809;28;19918;-70
2023/06/10 03:39:29;;;;;;;;;;;;;;;-146.25;100.00;52055.97;2070765;28;19922;-71
2023/06/10 03:40:32;;;;;;;;;;;;;;;-146.25;100.00;52053.94;2072223;28;19922;-70
2023/06/10 03:41:34;;;;;;;;;;;;;;;-146.25;100.00;52015.41;2064468;28;20675;-70
2023/06/10 03:42:36;;;;;;;;;;;;;;;-146.25;100.00;52047.84;2063305;28;19929;-70
2023/06/10 03:43:38;;;;;;;;;;;;;;;-146.25;100.00;52047.84;2071817;28;20830;-71
2023/06/10 03:44:40;;;;;;;;;;;;;;;-146.25;100.00;52037.72;2071074;28;20933;-70
2023/06/10 03:45:42;;;;;;;;;;;;;;;-146.25;100.00;52064.06;2072104;28;20073;-70
2023/06/10 03:46:45;;;;;;;;;;;;;;;-146.25;100.00;52039.75;2072308;28;19987;-70
2023/06/10 03:47:47;;;;;;;;;;;;;;;-146.25;100.00;52043.78;2071999;28;19918;-70
2023/06/10 03:48:56;;;;;;;;;;;;;;;-146.25;100.00;52039.75;2078105;28;20159;-69
2023/06/10 03:49:57;;;;;;;;;;;;;;;-146.25;100.00;52055.97;2072112;28;19992;-70
2023/06/10 03:50:59;;;;;;;;;;;;;;;-146.25;100.00;52027.56;2066494;28;19921;-70
2023/06/10 03:52:08;;;;;;;;;;;;;;;-146.25;100.00;52029.59;2072804;28;19929;-72
2023/06/10 03:53:09;;;;;;;;;;;;;;;-146.25;100.00;52094.47;2076031;28;20811;-69
2023/06/10 03:54:13;;;;;;;;;;;;;;;-146.25;100.00;52013.38;2072672;28;19933;-69
2023/06/10 03:55:16;;;;;;;;;;;;;;;-146.25;100.00;52055.97;2068318;28;20383;-70
2023/06/10 03:56:19;;;;;;;;;;;;;;;-146.25;100.00;52051.91;2077557;28;20336;-70
2023/06/10 03:57:21;;;;;;;;;;;;;;;-146.25;100.00;52039.75;2077049;28;28283;-70
2023/06/10 03:58:26;;;;;;;;;;;;;;;-146.25;100.00;52064.06;2081292;28;20047;-70
2023/06/10 03:59:28;;;;;;;;;;;;;;;-146.25;100.00;52080.28;2073358;28;20062;-69
2023/06/10 04:00:30;;;;;;;;;;;;;;;-146.25;100.00;52055.97;2072351;28;20056;-70
2023/06/10 04:01:33;;;;;;;;;;;;;;;-146.25;100.00;52070.16;2079768;28;26295;-70
2023/06/10 04:02:34;;;;;;;;;;;;;;;-146.25;100.00;52037.72;2087940;28;20721;-69
2023/06/10 04:03:36;;;;;;;;;;;;;;;-146.25;100.00;52082.31;2079812;28;19925;-70
2023/06/10 04:04:38;;;;;;;;;;;;;;;-146.25;100.00;52049.88;2080310;28;27762;-69
2023/06/10 04:05:41;;;;;;;;;;;;;;;-146.25;100.00;52049.88;2071248;28;29382;-72
2023/06/10 04:06:46;;;;;;;;;;;;;;;-146.25;100.00;52051.91;2072997;28;19921;-71
2023/06/10 04:07:51;;;;;;;;;;;;;;;-146.25;100.00;52076.22;2080202;28;19917;-70
2023/06/10 04:08:53;;;;;;;;;;;;;;;-146.25;100.00;52053.94;2070371;28;20867;-70
2023/06/10 04:09:55;;;;;;;;;;;;;;;-146.25;100.00;52047.84;2055492;28;25090;-68
2023/06/10 04:10:57;;;;;;;;;;;;;;;-146.25;100.00;52072.19;2057968;28;27538;-72
2023/06/10 04:11:59;;;;;;;;;;;;;;;-146.25;100.00;52011.34;2080002;28;19917;-72
2023/06/10 04:13:01;;;;;;;;;;;;;;;-146.25;100.00;52037.72;2076873;28;19914;-72
2023/06/10 04:14:08;;;;;;;;;;;;;;;-146.25;100.00;52066.09;2064461;28;19933;-69
2023/06/10 04:15:13;;;;;;;;;;;;;;;-146.25;100.00;52062.03;2076721;28;19925;-69
2023/06/10 04:16:15;;;;;;;;;;;;;;;-146.25;100.00;52088.41;2072382;28;19929;-69
2023/06/10 04:17:17;;;;;;;;;;;;;;;-146.25;100.00;52112.72;2066748;28;19926;-69
2023/06/10 04:18:21;;;;;;;;;;;;;;;-146.25;99.06;52058.00;2072013;28;20932;-71
2023/06/10 04:19:23;;;;;;;;;;;;;;;-146.25;95.96;52112.72;2078325;28;19996;-71
2023/06/10 04:20:26;;;;;;;;;;;;;;;-146.25;92.53;52100.56;2071952;28;19921;-71
2023/06/10 04:21:27;;;;;;;;;;;;;;;-146.25;88.01;52100.56;2073560;28;19914;-71
2023/06/10 04:22:29;;;;;;;;;;;;;;;-146.25;85.19;52062.03;2071912;28;20798;-71
2023/06/10 04:23:31;;;;;;;;;;;;;;;-146.25;82.09;52062.03;2079424;28;23926;-71
2023/06/10 04:24:36;;;;;;;;;;;;;;;-146.25;79.86;52074.22;2080021;28;19972;-71
2023/06/10 04:25:38;;;;;;;;;;;;;;;-146.25;77.85;52049.88;2072359;28;19929;-71
2023/06/10 04:26:39;;;;;;;;;;;;;;;-146.25;78.63;52086.38;2072647;28;22907;-71
2023/06/10 04:27:41;;;;;;;;;;;;;;;-146.25;75.74;52053.94;2079819;28;19948;-71
2023/06/10 04:28:44;;;;;;;;;;;;;;;-146.25;74.30;52082.31;2071493;28;20121;-71
2023/06/10 04:29:46;;;;;;;;;;;;;;;-146.25;75.37;52033.66;2064120;28;20921;-71
2023/06/10 04:30:48;;;;;;;;;;;;;;;-146.25;75.53;52037.72;2065030;28;20060;-71
2023/06/10 04:31:50;;;;;;;;;;;;;;;-146.25;75.54;52051.91;2080256;28;19914;-70
2023/06/10 04:32:52;;;;;;;;;;;;;;;-146.25;78.35;52080.28;2071245;28;19922;-71
2023/06/10 04:33:56;;;;;;;;;;;;;;;-146.25;76.61;52072.19;2064059;28;19929;-71
2023/06/10 04:34:59;;;;;;;;;;;;;;;-146.25;77.33;52051.91;2066515;28;19925;-71
2023/06/10 04:36:04;;;;;;;;;;;;;;;-146.25;77.59;52066.09;2072684;28;19926;-71
2023/06/10 04:37:06;;;;;;;;;;;;;;;-146.25;76.97;52055.97;2067947;28;19922;-71
2023/06/10 04:38:08;;;;;;;;;;;;;;;-146.25;75.49;52039.75;2063984;28;20020;-71
2023/06/10 04:39:10;;;;;;;;;;;;;;;-146.25;74.94;52051.91;2068148;28;20111;-71
2023/06/10 04:40:13;;;;;;;;;;;;;;;-146.25;74.01;52060.00;2072144;28;19930;-71
2023/06/10 04:41:18;;;;;;;;;;;;;;;-146.25;74.46;52055.97;2074564;28;19925;-71
2023/06/10 04:42:20;;;;;;;;;;;;;;;-146.25;73.09;52062.03;2064157;28;20079;-70
2023/06/10 04:43:21;;;;;;;;;;;;;;;-146.25;71.15;52068.13;2068901;28;19925;-71
2023/06/10 04:44:24;;;;;;;;;;;;;;;-146.25;73.15;52021.50;2072275;28;19917;-71
2023/06/10 04:45:26;;;;;;;;;;;;;;;-146.25;72.17;52041.75;2073458;28;19993;-71
2023/06/10 04:46:31;;;;;;;;;;;;;;;-146.25;73.00;52043.78;2071721;28;19929;-71
2023/06/10 04:47:33;;;;;;;;;;;;;;;-146.25;69.67;52041.75;2078822;28;20903;-71
2023/06/10 04:48:35;;;;;;;;;;;;;;;-146.25;72.68;52001.22;2080199;28;20018;-71
2023/06/10 04:49:38;;;;;;;;;;;;;;;-146.25;72.13;52060.00;2063957;28;20004;-71
2023/06/10 04:50:39;;;;;;;;;;;;;;;-146.25;70.03;52003.25;2063918;28;20763;-71
2023/06/10 04:51:41;;;;;;;;;;;;;;;-146.25;71.56;52027.56;2079291;28;22156;-71
2023/06/10 04:52:44;;;;;;;;;;;;;;;-146.25;70.79;52015.41;2079583;28;19925;-71
2023/06/10 04:53:46;;;;;;;;;;;;;;;-146.25;71.94;52047.84;2071541;28;20009;-71
2023/06/10 04:54:51;;;;;;;;;;;;;;;-146.25;73.16;52037.72;2073837;28;20791;-71
2023/06/10 04:55:52;;;;;;;;;;;;;;;-146.25;69.91;52055.97;2080071;28;36530;-71
2023/06/10 04:56:54;;;;;;;;;;;;;;;-146.25;69.63;52025.53;2074535;28;31301;-71
2023/06/10 04:57:56;;;;;;;;;;;;;;;-146.25;68.83;52051.91;2080203;28;33393;-71
2023/06/10 04:58:57;;;;;;;;;;;;;;;-146.25;70.21;52045.81;2078442;28;19921;-71
2023/06/10 04:59:59;;;;;;;;;;;;;;;-146.25;68.88;52055.97;2071754;28;34701;-71
2023/06/10 05:01:01;;;;;;;;;;;;;;;-146.25;66.89;52035.69;2075048;28;32894;-70
2023/06/10 05:02:06;;;;;;;;;;;;;;;-146.25;64.06;52013.38;2080577;28;19921;-71
2023/06/10 05:03:08;;;;;;;;;;;;;;;-146.25;63.86;52064.06;2080091;28;39230;-71
2023/06/10 05:04:10;;;;;;;;;;;;;;;-146.25;63.91;52015.41;2079580;28;39904;-69
2023/06/10 05:05:11;;;;;;;;;;;;;;;-146.25;66.80;51999.19;2074786;28;36403;-70
2023/06/10 05:06:13;;;;;;;;;;;;;;;-146.25;67.71;52041.75;2071148;28;34722;-70
2023/06/10 05:07:17;;;;;;;;;;;;;;;-146.25;68.44;51964.72;2076826;28;34623;-69
2023/06/10 05:08:18;;;;;;;;;;;;;;;-146.25;71.89;52035.69;2080451;28;20344;-69
2023/06/10 05:09:20;;;;;;;;;;;;;;;-146.25;71.03;52039.75;2073983;28;35144;-69
2023/06/10 05:10:22;;;;;;;;;;;;;;;-146.25;72.57;52082.31;2073028;28;20039;-69
2023/06/10 05:11:24;;;;;;;;;;;;;;;-146.25;71.89;52031.63;2077190;28;35903;-69
2023/06/10 05:12:26;;;;;;;;;;;;;;;-146.25;72.39;52031.63;2079580;28;19927;-70
2023/06/10 05:13:27;;;;;;;;;;;;;;;-146.25;71.31;52064.06;2073679;28;33983;-69
2023/06/10 05:14:29;;;;;;;;;;;;;;;-146.25;72.15;52021.50;2070906;28;38307;-69
2023/06/10 05:15:31;;;;;;;;;;;;;;;-146.25;71.94;51997.16;2070245;28;40791;-69
2023/06/10 05:16:32;;;;;;;;;;;;;;;-146.25;73.51;52029.59;2079674;28;25319;-69
2023/06/10 05:17:36;;;;;;;;;;;;;;;-146.25;72.83;52058.00;2072309;28;35139;-68
2023/06/10 05:18:41;;;;;;;;;;;;;;;-146.25;73.66;52033.66;2072412;28;19922;-70
2023/06/10 05:19:44;;;;;;;;;;;;;;;-146.25;73.44;52041.75;2080044;28;36470;-69
2023/06/10 05:20:46;;;;;;;;;;;;;;;-146.25;74.14;52043.78;2078635;28;34471;-70